Time;durP1;ratioP1;P1;durP2;ratioP2;P2;SDS_P1;SDS_P2;PMS_P1;PMS_P2;Temp;Humidity;BMP_temperature;BMP_pressure;BME280_temperature;BME280_humidity;BME280_pressure;Samples;Min_cycle;Max_cycle;Signal;HPM_P1;HPM_P2
2022/10/12 00:00:44;;;;;;;7.40;2.58;;;;;;;;;;4963712;28;20062;-64
2022/10/12 00:03:12;;;;;;;9.80;3.10;;;;;;;;;;4969453;28;20050;-64
2022/10/12 00:05:39;;;;;;;8.57;3.00;;;;;;;;;;4963854;28;20082;-64
2022/10/12 00:08:07;;;;;;;6.60;2.42;;;;;;;;;;4969044;28;20058;-65
2022/10/12 00:10:34;;;;;;;8.88;2.60;;;;;;;;;;4957932;28;20057;-64
2022/10/12 00:13:01;;;;;;;6.88;2.60;;;;;;;;;;4949979;28;20050;-64
2022/10/12 00:15:28;;;;;;;9.15;2.55;;;;;;;;;;4949513;28;20065;-63
2022/10/12 00:17:56;;;;;;;7.30;2.53;;;;;;;;;;4968611;28;20058;-63
2022/10/12 00:20:23;;;;;;;7.07;2.55;;;;;;;;;;4963953;28;20582;-63
2022/10/12 00:22:49;;;;;;;8.40;2.33;;;;;;;;;;4968590;28;20050;-63
2022/10/12 00:25:17;;;;;;;4.80;2.10;;;;;;;;;;4967557;28;20084;-63
2022/10/12 00:27:45;;;;;;;8.88;2.42;;;;;;;;;;4967583;28;20054;-64
2022/10/12 00:30:12;;;;;;;7.65;2.35;;;;;;;;;;4969111;28;20156;-63
2022/10/12 00:32:39;;;;;;;6.43;2.47;;;;;;;;;;4964002;28;20093;-64
2022/10/12 00:35:06;;;;;;;7.65;2.63;;;;;;;;;;4969408;28;20055;-64
2022/10/12 00:37:32;;;;;;;7.82;2.45;;;;;;;;;;4963594;28;20058;-63
2022/10/12 00:39:59;;;;;;;8.38;2.38;;;;;;;;;;4969213;28;20143;-64
2022/10/12 00:42:27;;;;;;;10.20;2.30;;;;;;;;;;4963272;28;20046;-63
2022/10/12 00:44:54;;;;;;;5.10;1.92;;;;;;;;;;4967978;28;20074;-64
2022/10/12 00:47:24;;;;;;;5.45;2.00;;;;;;;;;;4963768;28;20054;-65
2022/10/12 00:49:52;;;;;;;6.18;2.17;;;;;;;;;;4969043;28;20084;-65
2022/10/12 00:52:20;;;;;;;8.85;2.20;;;;;;;;;;4962185;28;20286;-65
2022/10/12 00:54:47;;;;;;;5.63;2.20;;;;;;;;;;4968429;28;20058;-63
2022/10/12 00:57:15;;;;;;;7.88;2.53;;;;;;;;;;4962888;28;20042;-62
2022/10/12 00:59:44;;;;;;;5.20;1.75;;;;;;;;;;4968599;28;20055;-64
2022/10/12 01:02:11;;;;;;;6.25;1.98;;;;;;;;;;4963998;28;20054;-63
2022/10/12 01:04:39;;;;;;;4.88;1.80;;;;;;;;;;4968802;28;20062;-63
2022/10/12 01:07:05;;;;;;;5.45;1.70;;;;;;;;;;4963487;28;20065;-64
2022/10/12 01:09:32;;;;;;;4.93;1.80;;;;;;;;;;4969153;28;20046;-64
2022/10/12 01:11:58;;;;;;;5.68;1.95;;;;;;;;;;4968634;28;22234;-64
2022/10/12 01:14:26;;;;;;;8.65;2.30;;;;;;;;;;4963330;28;20059;-64
2022/10/12 01:16:57;;;;;;;9.38;2.47;;;;;;;;;;4968190;28;20082;-65
2022/10/12 01:19:29;;;;;;;5.05;1.70;;;;;;;;;;4962781;28;20077;-65
2022/10/12 01:22:00;;;;;;;7.57;1.80;;;;;;;;;;4968595;28;20058;-65
2022/10/12 01:24:34;;;;;;;8.15;1.80;;;;;;;;;;4963046;28;20051;-65
2022/10/12 01:27:03;;;;;;;7.43;1.80;;;;;;;;;;4967847;28;20062;-65
2022/10/12 01:29:37;;;;;;;6.68;1.67;;;;;;;;;;4958896;28;20054;-64
2022/10/12 01:32:09;;;;;;;4.63;1.70;;;;;;;;;;4968657;28;20073;-62
2022/10/12 01:34:40;;;;;;;4.15;1.60;;;;;;;;;;4964704;28;20062;-63
2022/10/12 01:37:10;;;;;;;6.25;1.70;;;;;;;;;;4972030;28;20058;-63
2022/10/12 01:39:41;;;;;;;4.88;1.55;;;;;;;;;;4966404;28;20054;-63
2022/10/12 01:42:09;;;;;;;4.28;1.63;;;;;;;;;;4971888;28;20058;-63
2022/10/12 01:44:35;;;;;;;4.87;1.67;;;;;;;;;;4966717;28;20049;-62
2022/10/12 01:47:02;;;;;;;8.15;2.00;;;;;;;;;;4971617;28;20053;-63
2022/10/12 01:49:31;;;;;;;6.25;1.58;;;;;;;;;;4965964;28;20046;-63
2022/10/12 01:52:16;;;;;;;4.25;1.70;;;;;;;;;;4972269;28;20058;-64
2022/10/12 01:54:50;;;;;;;4.97;1.33;;;;;;;;;;4981803;28;20050;-64
2022/10/12 01:57:19;;;;;;;7.10;1.83;;;;;;;;;;4970854;28;20051;-64
2022/10/12 01:59:45;;;;;;;;;;;;;;;;;;4966365;28;20054;-62
2022/10/12 02:02:16;;;;;;;7.47;1.65;;;;;;;;;;4969439;28;19929;-64
2022/10/12 02:04:48;;;;;;;5.90;1.70;;;;;;;;;;4965862;28;20058;-64
2022/10/12 02:07:18;;;;;;;6.90;1.70;;;;;;;;;;4969440;28;20054;-65
2022/10/12 02:09:47;;;;;;;4.45;1.33;;;;;;;;;;4966168;28;20046;-65
2022/10/12 02:12:15;;;;;;;4.68;1.88;;;;;;;;;;4972269;28;20054;-64
2022/10/12 02:14:45;;;;;;;7.45;2.08;;;;;;;;;;4966006;28;20046;-63
2022/10/12 02:17:13;;;;;;;4.03;1.42;;;;;;;;;;4966559;28;20197;-63
2022/10/12 02:19:40;;;;;;;7.25;1.63;;;;;;;;;;4952254;28;20063;-64
2022/10/12 02:22:09;;;;;;;9.93;1.75;;;;;;;;;;4982581;28;20058;-63
2022/10/12 02:24:35;;;;;;;;;;;;;;;;;;4971524;28;20152;-63
2022/10/12 02:27:03;;;;;;;5.95;1.60;;;;;;;;;;4965574;28;19922;-62
2022/10/12 02:29:32;;;;;;;4.63;1.67;;;;;;;;;;4970052;28;20058;-64
2022/10/12 02:32:02;;;;;;;3.47;1.48;;;;;;;;;;4965572;28;20058;-64
2022/10/12 02:34:31;;;;;;;5.45;1.73;;;;;;;;;;4971458;28;20133;-65
2022/10/12 02:37:04;;;;;;;4.68;1.40;;;;;;;;;;4965495;28;20142;-64
2022/10/12 02:39:37;;;;;;;5.30;1.40;;;;;;;;;;4970432;28;20054;-64
2022/10/12 02:42:08;;;;;;;5.45;1.85;;;;;;;;;;4965451;28;20142;-63
2022/10/12 02:44:37;;;;;;;6.20;1.80;;;;;;;;;;4970514;28;20054;-65
2022/10/12 02:47:04;;;;;;;6.80;1.55;;;;;;;;;;4964433;28;20077;-65
2022/10/12 02:49:31;;;;;;;6.70;1.65;;;;;;;;;;4970919;28;20101;-65
2022/10/12 02:51:58;;;;;;;5.63;1.40;;;;;;;;;;4965331;28;20054;-64
2022/10/12 02:54:25;;;;;;;5.07;1.70;;;;;;;;;;4970291;28;20066;-65
2022/10/12 02:56:54;;;;;;;4.85;1.55;;;;;;;;;;4965407;28;20058;-65
2022/10/12 02:59:21;;;;;;;4.07;1.10;;;;;;;;;;4970603;28;20054;-64
2022/10/12 03:01:50;;;;;;;2.45;1.13;;;;;;;;;;4964927;28;20053;-64
2022/10/12 03:04:17;;;;;;;5.78;1.83;;;;;;;;;;4970726;28;20054;-66
2022/10/12 03:06:44;;;;;;;5.47;1.40;;;;;;;;;;4964886;28;20054;-63
2022/10/12 03:09:10;;;;;;;3.28;1.40;;;;;;;;;;4970649;28;20133;-62
2022/10/12 03:11:42;;;;;;;5.00;1.67;;;;;;;;;;4969988;28;20062;-63
2022/10/12 03:14:10;;;;;;;6.13;1.65;;;;;;;;;;4965805;28;20113;-62
2022/10/12 03:16:37;;;;;;;3.30;1.20;;;;;;;;;;4969718;28;20050;-63
2022/10/12 03:19:04;;;;;;;3.53;1.40;;;;;;;;;;4964562;28;20116;-65
2022/10/12 03:21:31;;;;;;;3.35;1.38;;;;;;;;;;4969619;28;20086;-63
2022/10/12 03:23:57;;;;;;;3.05;1.30;;;;;;;;;;4964764;28;20089;-63
2022/10/12 03:26:24;;;;;;;4.85;1.65;;;;;;;;;;4960323;28;20123;-64
2022/10/12 03:28:50;;;;;;;6.45;1.38;;;;;;;;;;4965036;28;20058;-62
2022/10/12 03:31:19;;;;;;;5.97;1.55;;;;;;;;;;4956408;28;20054;-64
2022/10/12 03:33:45;;;;;;;4.28;1.42;;;;;;;;;;4955146;28;20145;-63
2022/10/12 03:36:12;;;;;;;8.55;1.60;;;;;;;;;;4970103;28;20104;-63
2022/10/12 03:38:39;;;;;;;5.15;1.70;;;;;;;;;;4964698;28;20105;-62
2022/10/12 03:41:05;;;;;;;4.28;1.35;;;;;;;;;;4970098;28;20065;-62
2022/10/12 03:43:32;;;;;;;5.57;1.50;;;;;;;;;;4964347;28;20050;-62
2022/10/12 03:45:58;;;;;;;2.80;1.35;;;;;;;;;;4969527;28;20054;-64
2022/10/12 03:48:26;;;;;;;3.65;1.45;;;;;;;;;;4964140;28;20056;-64
2022/10/12 03:50:53;;;;;;;3.88;1.40;;;;;;;;;;4969598;28;20061;-62
2022/10/12 03:53:20;;;;;;;8.27;2.00;;;;;;;;;;4969686;28;20050;-62
2022/10/12 03:55:47;;;;;;;10.07;1.88;;;;;;;;;;4966549;28;20345;-62
2022/10/12 03:58:13;;;;;;;5.05;1.50;;;;;;;;;;4968630;28;20056;-63
2022/10/12 04:00:40;;;;;;;5.07;1.88;;;;;;;;;;4962535;28;20086;-63
2022/10/12 04:03:07;;;;;;;4.60;1.50;;;;;;;;;;4969922;28;20069;-63
2022/10/12 04:05:35;;;;;;;3.90;1.35;;;;;;;;;;4964838;28;20206;-62
2022/10/12 04:08:01;;;;;;;5.32;1.50;;;;;;;;;;4969355;28;20141;-63
2022/10/12 04:10:28;;;;;;;4.38;1.63;;;;;;;;;;4964117;28;20101;-62
2022/10/12 04:12:55;;;;;;;3.65;1.40;;;;;;;;;;4968007;28;20097;-64
2022/10/12 04:15:21;;;;;;;6.47;1.40;;;;;;;;;;4963674;28;20050;-65
2022/10/12 04:17:48;;;;;;;6.28;1.33;;;;;;;;;;4969631;28;20057;-63
2022/10/12 04:20:14;;;;;;;5.55;1.42;;;;;;;;;;4964145;28;20112;-62
2022/10/12 04:22:42;;;;;;;4.57;1.67;;;;;;;;;;4969240;28;20056;-63
2022/10/12 04:25:10;;;;;;;4.73;1.33;;;;;;;;;;4963797;28;20038;-63
2022/10/12 04:27:36;;;;;;;6.45;2.03;;;;;;;;;;4969108;28;20306;-65
2022/10/12 04:30:03;;;;;;;4.93;1.80;;;;;;;;;;4962771;28;20093;-64
2022/10/12 04:32:31;;;;;;;4.28;1.23;;;;;;;;;;4966725;28;20046;-63
2022/10/12 04:34:57;;;;;;;4.60;1.52;;;;;;;;;;4969115;28;20093;-66
2022/10/12 04:37:26;;;;;;;3.45;1.42;;;;;;;;;;4966166;28;21008;-65
2022/10/12 04:39:54;;;;;;;5.85;1.63;;;;;;;;;;4969193;28;20058;-63
2022/10/12 04:42:20;;;;;;;4.27;1.23;;;;;;;;;;4962981;28;20132;-65
2022/10/12 04:44:47;;;;;;;3.35;1.27;;;;;;;;;;4968846;28;20371;-65
2022/10/12 04:47:14;;;;;;;5.20;1.50;;;;;;;;;;4963493;28;20108;-63
2022/10/12 04:49:40;;;;;;;5.00;1.55;;;;;;;;;;4969017;28;20050;-63
2022/10/12 04:52:07;;;;;;;5.78;1.63;;;;;;;;;;4963403;28;20436;-65
2022/10/12 04:54:33;;;;;;;4.80;1.55;;;;;;;;;;4970519;28;20113;-64
2022/10/12 04:57:01;;;;;;;5.25;1.40;;;;;;;;;;4961337;28;20054;-64
2022/10/12 04:59:28;;;;;;;4.30;1.30;;;;;;;;;;4971486;28;20054;-63
2022/10/12 05:01:54;;;;;;;4.55;1.67;;;;;;;;;;4956159;28;20182;-65
2022/10/12 05:04:21;;;;;;;3.58;1.38;;;;;;;;;;4970006;28;20062;-64
2022/10/12 05:06:48;;;;;;;6.70;1.35;;;;;;;;;;4959713;28;20055;-62
2022/10/12 05:09:15;;;;;;;4.47;1.17;;;;;;;;;;4987615;28;20108;-63
2022/10/12 05:11:41;;;;;;;5.28;1.70;;;;;;;;;;4969058;28;20149;-63
2022/10/12 05:14:10;;;;;;;2.78;1.20;;;;;;;;;;4972984;28;20065;-64
2022/10/12 05:16:36;;;;;;;3.42;1.30;;;;;;;;;;4970382;28;20068;-63
2022/10/12 05:19:04;;;;;;;2.88;1.13;;;;;;;;;;4971247;28;20051;-65
2022/10/12 05:21:30;;;;;;;5.05;1.50;;;;;;;;;;4972850;28;20058;-64
2022/10/12 05:23:57;;;;;;;4.60;1.60;;;;;;;;;;4967073;28;20049;-63
2022/10/12 05:26:23;;;;;;;4.07;1.52;;;;;;;;;;4974416;28;20046;-64
2022/10/12 05:28:51;;;;;;;4.30;1.80;;;;;;;;;;4968034;28;20141;-63
2022/10/12 05:31:19;;;;;;;8.32;2.05;;;;;;;;;;4973277;28;20056;-64
2022/10/12 05:33:46;;;;;;;3.57;1.60;;;;;;;;;;4969263;28;20058;-65
2022/10/12 05:36:12;;;;;;;4.53;1.77;;;;;;;;;;4974360;28;20306;-65
2022/10/12 05:38:39;;;;;;;4.05;1.48;;;;;;;;;;4963013;28;20128;-65
2022/10/12 05:41:06;;;;;;;6.07;1.77;;;;;;;;;;4972294;28;20089;-65
2022/10/12 05:43:32;;;;;;;6.25;1.80;;;;;;;;;;4965122;28;20522;-64
2022/10/12 05:45:59;;;;;;;3.72;1.70;;;;;;;;;;4972318;28;20050;-65
2022/10/12 05:48:28;;;;;;;3.75;1.80;;;;;;;;;;4965759;28;20054;-65
2022/10/12 05:50:54;;;;;;;5.10;1.98;;;;;;;;;;4970912;28;20050;-65
2022/10/12 05:53:22;;;;;;;5.32;2.08;;;;;;;;;;4965039;28;20071;-64
2022/10/12 05:55:52;;;;;;;4.95;1.77;;;;;;;;;;4971660;28;20058;-65
2022/10/12 05:58:19;;;;;;;6.15;1.83;;;;;;;;;;4966346;28;20093;-62
2022/10/12 06:00:45;;;;;;;5.63;1.98;;;;;;;;;;4972018;28;20054;-65
2022/10/12 06:03:12;;;;;;;5.30;1.95;;;;;;;;;;4971669;28;20060;-64
2022/10/12 06:05:40;;;;;;;5.90;1.88;;;;;;;;;;4966047;28;20086;-64
2022/10/12 06:08:07;;;;;;;5.63;1.80;;;;;;;;;;4970981;28;20090;-64
2022/10/12 06:10:34;;;;;;;5.18;1.90;;;;;;;;;;4965822;28;20341;-65
2022/10/12 06:13:01;;;;;;;6.05;1.65;;;;;;;;;;4971985;28;20058;-65
2022/10/12 06:15:27;;;;;;;5.50;1.90;;;;;;;;;;4965635;28;20101;-65
2022/10/12 06:17:54;;;;;;;8.45;2.10;;;;;;;;;;4971266;28;20050;-65
2022/10/12 06:20:21;;;;;;;5.50;1.88;;;;;;;;;;4964458;28;20061;-64
2022/10/12 06:22:49;;;;;;;4.88;1.90;;;;;;;;;;4970570;28;20058;-63
2022/10/12 06:25:15;;;;;;;7.85;2.08;;;;;;;;;;4966068;28;20114;-64
2022/10/12 06:27:44;;;;;;;6.70;2.13;;;;;;;;;;4970968;28;20058;-64
2022/10/12 06:30:11;;;;;;;8.45;2.13;;;;;;;;;;4965931;28;20054;-63
2022/10/12 06:32:38;;;;;;;9.25;2.33;;;;;;;;;;4971031;28;20065;-64
2022/10/12 06:35:06;;;;;;;5.43;2.40;;;;;;;;;;4965895;28;20058;-63
2022/10/12 06:37:32;;;;;;;4.10;1.98;;;;;;;;;;4971605;28;20042;-63
2022/10/12 06:40:00;;;;;;;4.55;1.95;;;;;;;;;;4965347;28;20068;-63
2022/10/12 06:42:27;;;;;;;5.68;2.15;;;;;;;;;;4970714;28;20057;-65
2022/10/12 06:44:53;;;;;;;8.07;2.25;;;;;;;;;;4971049;28;20085;-64
2022/10/12 06:47:20;;;;;;;8.15;2.65;;;;;;;;;;4965023;28;20141;-64
2022/10/12 06:49:47;;;;;;;6.43;2.15;;;;;;;;;;4971128;28;20058;-65
2022/10/12 06:52:13;;;;;;;7.53;2.28;;;;;;;;;;4965384;28;20111;-65
2022/10/12 06:54:40;;;;;;;6.60;2.38;;;;;;;;;;4970380;28;20087;-64
2022/10/12 06:57:08;;;;;;;5.50;1.92;;;;;;;;;;4964706;28;20089;-64
2022/10/12 06:59:34;;;;;;;7.60;2.40;;;;;;;;;;4970220;28;20054;-64
2022/10/12 07:02:01;;;;;;;4.28;1.73;;;;;;;;;;4964864;28;20313;-64
2022/10/12 07:04:27;;;;;;;5.10;1.85;;;;;;;;;;4969976;28;20058;-62
2022/10/12 07:06:54;;;;;;;4.10;1.67;;;;;;;;;;4967437;28;20061;-65
2022/10/12 07:09:21;;;;;;;5.25;1.70;;;;;;;;;;4970098;28;20451;-65
2022/10/12 07:11:47;;;;;;;5.70;2.03;;;;;;;;;;4958131;28;20050;-64
2022/10/12 07:14:15;;;;;;;4.75;1.98;;;;;;;;;;4970012;28;20046;-65
2022/10/12 07:16:42;;;;;;;7.75;3.25;;;;;;;;;;4964345;28;20053;-65
2022/10/12 07:19:08;;;;;;;6.75;2.90;;;;;;;;;;4969577;28;20287;-64
2022/10/12 07:21:35;;;;;;;6.47;2.38;;;;;;;;;;4963646;28;20043;-66
2022/10/12 07:24:01;;;;;;;6.97;2.45;;;;;;;;;;4969410;28;20078;-66
2022/10/12 07:26:28;;;;;;;6.40;2.63;;;;;;;;;;4969060;28;20054;-66
2022/10/12 07:28:55;;;;;;;7.00;2.92;;;;;;;;;;4962985;28;20097;-66
2022/10/12 07:31:23;;;;;;;5.97;2.53;;;;;;;;;;4968564;28;20037;-67
2022/10/12 07:33:49;;;;;;;12.20;2.47;;;;;;;;;;4964062;28;20054;-66
2022/10/12 07:36:16;;;;;;;6.13;2.30;;;;;;;;;;4969935;28;20085;-67
2022/10/12 07:38:43;;;;;;;6.85;2.17;;;;;;;;;;4963929;28;20063;-67
2022/10/12 07:41:10;;;;;;;9.35;2.97;;;;;;;;;;4969251;28;20077;-67
2022/10/12 07:43:37;;;;;;;4.90;1.88;;;;;;;;;;4962311;28;20054;-66
2022/10/12 07:46:04;;;;;;;6.28;2.55;;;;;;;;;;4968865;28;20168;-65
2022/10/12 07:48:33;;;;;;;4.38;2.00;;;;;;;;;;4963084;28;20058;-67
2022/10/12 07:50:59;;;;;;;;;;;;;;;;;;4969220;28;20116;-67
2022/10/12 07:53:26;;;;;;;6.75;2.70;;;;;;;;;;4962597;28;20329;-67
2022/10/12 07:55:52;;;;;;;7.15;2.35;;;;;;;;;;4968399;28;20061;-67
2022/10/12 07:58:19;;;;;;;6.13;2.35;;;;;;;;;;4964267;28;20152;-67
2022/10/12 08:00:46;;;;;;;4.90;2.10;;;;;;;;;;4969303;28;20062;-67
2022/10/12 08:03:12;;;;;;;7.63;2.40;;;;;;;;;;4964004;28;20108;-67
2022/10/12 08:05:40;;;;;;;7.72;2.80;;;;;;;;;;4969290;28;20058;-67
2022/10/12 08:08:08;;;;;;;7.95;3.15;;;;;;;;;;4969560;28;20061;-65
2022/10/12 08:10:35;;;;;;;11.25;3.83;;;;;;;;;;4964038;28;20074;-67
2022/10/12 08:13:02;;;;;;;6.85;2.60;;;;;;;;;;4969142;28;20066;-67
2022/10/12 08:15:28;;;;;;;8.73;3.05;;;;;;;;;;4964101;28;20342;-67
2022/10/12 08:17:55;;;;;;;5.70;2.45;;;;;;;;;;4969451;28;20050;-67
2022/10/12 08:20:22;;;;;;;9.85;3.28;;;;;;;;;;4963750;28;20077;-67
2022/10/12 08:22:49;;;;;;;13.60;4.20;;;;;;;;;;4968540;28;20054;-67
2022/10/12 08:25:16;;;;;;;7.97;2.90;;;;;;;;;;4963690;28;20061;-67
2022/10/12 08:27:43;;;;;;;15.98;4.32;;;;;;;;;;4968832;28;20309;-67
2022/10/12 08:30:10;;;;;;;13.52;3.88;;;;;;;;;;4963672;28;20058;-65
2022/10/12 08:32:36;;;;;;;9.25;2.67;;;;;;;;;;4969339;28;20081;-66
2022/10/12 08:35:03;;;;;;;10.98;3.33;;;;;;;;;;4963305;28;20149;-67
2022/10/12 08:37:30;;;;;;;9.55;3.50;;;;;;;;;;4968939;28;20063;-66
2022/10/12 08:39:58;;;;;;;13.43;4.20;;;;;;;;;;4963750;28;20056;-67
2022/10/12 08:42:34;;;;;;;5.97;2.60;;;;;;;;;;4968390;28;20054;-64
2022/10/12 08:45:13;;;;;;;4.90;2.25;;;;;;;;;;4963272;28;20324;-63
2022/10/12 08:47:41;;;;;;;9.60;3.55;;;;;;;;;;4968963;28;20105;-65
2022/10/12 08:50:14;;;;;;;10.80;3.55;;;;;;;;;;4963224;28;20058;-65
2022/10/12 08:52:43;;;;;;;11.82;4.22;;;;;;;;;;4969343;28;20058;-65
2022/10/12 08:55:20;;;;;;;7.07;2.92;;;;;;;;;;4963430;28;20054;-65
2022/10/12 08:57:47;;;;;;;13.65;3.90;;;;;;;;;;4949690;28;20058;-65
2022/10/12 09:00:14;;;;;;;8.88;3.30;;;;;;;;;;4949693;28;20051;-64
2022/10/12 09:02:49;;;;;;;10.82;3.55;;;;;;;;;;4960643;28;20061;-66
2022/10/12 09:05:19;;;;;;;7.30;3.60;;;;;;;;;;4948856;28;20054;-65
2022/10/12 09:07:48;;;;;;;13.05;4.13;;;;;;;;;;4961250;28;20112;-64
2022/10/12 09:10:23;;;;;;;12.18;3.42;;;;;;;;;;4967652;28;20051;-66
2022/10/12 09:12:55;;;;;;;10.50;3.00;;;;;;;;;;4963447;28;20046;-65
2022/10/12 09:15:23;;;;;;;8.60;3.60;;;;;;;;;;4969015;28;20062;-67
2022/10/12 09:17:52;;;;;;;10.35;3.72;;;;;;;;;;4962361;28;20058;-66
2022/10/12 09:20:20;;;;;;;10.23;3.80;;;;;;;;;;4968564;28;20055;-65
2022/10/12 09:22:49;;;;;;;11.55;3.88;;;;;;;;;;4963437;28;20062;-67
2022/10/12 09:25:16;;;;;;;9.77;3.67;;;;;;;;;;4968364;28;20070;-66
2022/10/12 09:27:46;;;;;;;7.82;3.17;;;;;;;;;;4963134;28;20112;-65
2022/10/12 09:30:14;;;;;;;7.93;3.00;;;;;;;;;;4965960;28;20058;-67
2022/10/12 09:32:44;;;;;;;8.15;3.10;;;;;;;;;;4962710;28;20061;-65
2022/10/12 09:35:13;;;;;;;9.07;3.67;;;;;;;;;;4964390;28;20065;-66
2022/10/12 09:37:39;;;;;;;11.20;4.22;;;;;;;;;;4962233;28;20054;-65
2022/10/12 09:40:07;;;;;;;10.65;4.22;;;;;;;;;;4967890;28;20060;-67
2022/10/12 09:42:33;;;;;;;13.43;4.60;;;;;;;;;;4963131;28;20205;-65
2022/10/12 09:45:09;;;;;;;15.30;4.32;;;;;;;;;;4968519;28;20058;-64
2022/10/12 09:47:35;;;;;;;10.70;4.05;;;;;;;;;;4947629;28;20058;-66
2022/10/12 09:50:05;;;;;;;6.82;2.70;;;;;;;;;;4968724;28;20078;-65
2022/10/12 09:52:41;;;;;;;6.57;3.08;;;;;;;;;;4963131;28;20065;-64
2022/10/12 09:55:19;;;;;;;11.48;3.92;;;;;;;;;;4968478;28;20065;-66
2022/10/12 09:57:46;;;;;;;;;;;;;;;;;;4966393;28;20113;-64
2022/10/12 10:00:25;;;;;;;10.05;3.75;;;;;;;;;;4988057;28;19930;-65
2022/10/12 10:02:51;;;;;;;13.82;4.82;;;;;;;;;;4966131;28;20058;-65
2022/10/12 10:05:24;;;;;;;13.57;4.20;;;;;;;;;;4971305;28;20050;-64
2022/10/12 10:07:50;;;;;;;8.45;3.83;;;;;;;;;;4971105;28;20046;-65
2022/10/12 10:10:18;;;;;;;12.30;4.15;;;;;;;;;;4962972;28;20043;-62
2022/10/12 10:12:49;;;;;;;15.50;4.83;;;;;;;;;;4952099;28;20058;-64
2022/10/12 10:15:26;;;;;;;9.70;4.45;;;;;;;;;;4963319;28;20051;-63
2022/10/12 10:17:55;;;;;;;13.55;4.60;;;;;;;;;;4969800;28;20078;-65
2022/10/12 10:20:27;;;;;;;17.00;5.38;;;;;;;;;;4965261;28;20077;-64
2022/10/12 10:22:54;;;;;;;13.75;4.70;;;;;;;;;;4970773;28;20062;-63
2022/10/12 10:25:22;;;;;;;12.40;5.05;;;;;;;;;;4965112;28;20092;-63
2022/10/12 10:27:50;;;;;;;11.05;4.00;;;;;;;;;;4971405;28;20085;-65
2022/10/12 10:30:22;;;;;;;10.25;4.25;;;;;;;;;;4965547;28;20070;-66
2022/10/12 10:33:06;;;;;;;16.67;5.05;;;;;;;;;;4971225;28;20263;-66
2022/10/12 10:35:33;;;;;;;11.80;4.00;;;;;;;;;;4965641;28;20074;-63
2022/10/12 10:37:59;;;;;;;14.73;4.15;;;;;;;;;;4970489;28;20062;-66
2022/10/12 10:40:27;;;;;;;13.50;4.70;;;;;;;;;;4972472;28;20129;-63
2022/10/12 10:42:55;;;;;;;8.82;3.83;;;;;;;;;;4970345;28;20065;-62
2022/10/12 10:45:23;;;;;;;9.73;4.15;;;;;;;;;;4964722;28;20093;-67
2022/10/12 10:47:55;;;;;;;14.52;4.72;;;;;;;;;;4971097;28;20066;-62
2022/10/12 10:50:26;;;;;;;14.38;5.10;;;;;;;;;;4965466;28;20055;-65
2022/10/12 10:52:54;;;;;;;11.93;4.47;;;;;;;;;;4970981;28;20050;-66
2022/10/12 10:55:21;;;;;;;14.23;4.37;;;;;;;;;;4984306;28;20061;-65
2022/10/12 10:57:50;;;;;;;9.65;4.22;;;;;;;;;;5006104;28;20355;-66
2022/10/12 11:00:19;;;;;;;9.90;4.70;;;;;;;;;;4984379;28;20367;-66
2022/10/12 11:02:48;;;;;;;10.40;4.55;;;;;;;;;;4990325;28;20042;-65
2022/10/12 11:05:20;;;;;;;15.05;4.65;;;;;;;;;;4983579;28;20065;-65
2022/10/12 11:07:49;;;;;;;12.57;4.82;;;;;;;;;;4988861;28;20050;-65
2022/10/12 11:10:18;;;;;;;18.15;5.03;;;;;;;;;;4989435;28;20076;-63
2022/10/12 11:12:48;;;;;;;13.02;4.22;;;;;;;;;;4986468;28;20064;-66
2022/10/12 11:15:18;;;;;;;11.95;5.25;;;;;;;;;;4989740;28;20116;-62
2022/10/12 11:17:46;;;;;;;13.35;4.70;;;;;;;;;;4983846;28;20054;-65
2022/10/12 11:20:25;;;;;;;11.23;4.22;;;;;;;;;;4988948;28;20054;-63
2022/10/12 11:22:54;;;;;;;13.00;4.50;;;;;;;;;;4967420;28;20050;-65
2022/10/12 11:25:20;;;;;;;;;;;;;;;;;;4970475;28;20062;-62
2022/10/12 11:27:47;;;;;;;13.88;4.97;;;;;;;;;;4979031;28;19931;-64
2022/10/12 11:30:14;;;;;;;12.63;5.00;;;;;;;;;;4989370;28;20065;-65
2022/10/12 11:32:42;;;;;;;14.00;5.10;;;;;;;;;;4983959;28;20057;-65
2022/10/12 11:35:14;;;;;;;18.98;5.85;;;;;;;;;;4989490;28;20057;-64
2022/10/12 11:37:45;;;;;;;12.93;4.13;;;;;;;;;;4997551;28;20054;-65
2022/10/12 11:40:18;;;;;;;13.00;5.70;;;;;;;;;;4981963;28;20045;-65
2022/10/12 11:42:47;;;;;;;13.93;5.10;;;;;;;;;;4974088;28;20050;-62
2022/10/12 11:45:18;;;;;;;14.82;5.13;;;;;;;;;;4989586;28;20081;-64
2022/10/12 11:47:46;;;;;;;13.48;5.05;;;;;;;;;;4983654;28;20069;-64
2022/10/12 11:50:18;;;;;;;8.32;3.53;;;;;;;;;;4988851;28;20077;-64
2022/10/12 11:52:48;;;;;;;10.00;4.20;;;;;;;;;;4983130;28;20058;-63
2022/10/12 11:55:27;;;;;;;14.73;4.93;;;;;;;;;;4969679;28;20061;-65
2022/10/12 11:57:54;;;;;;;9.52;4.13;;;;;;;;;;4961283;28;20149;-66
2022/10/12 12:00:23;;;;;;;11.82;3.50;;;;;;;;;;4965854;28;20117;-66
2022/10/12 12:02:51;;;;;;;10.50;4.25;;;;;;;;;;4964453;28;20050;-66
2022/10/12 12:05:17;;;;;;;10.50;3.87;;;;;;;;;;4969786;28;20250;-65
2022/10/12 12:07:47;;;;;;;11.75;3.78;;;;;;;;;;4963902;28;20146;-66
2022/10/12 12:10:34;;;;;;;15.10;3.90;;;;;;;;;;4968936;28;20137;-65
2022/10/12 12:13:16;;;;;;;16.30;4.35;;;;;;;;;;4963437;28;20093;-64
2022/10/12 12:16:03;;;;;;;10.18;3.92;;;;;;;;;;4967463;28;20190;-65
2022/10/12 12:18:49;;;;;;;11.05;3.95;;;;;;;;;;4962905;28;20124;-66
2022/10/12 12:21:16;;;;;;;12.00;4.35;;;;;;;;;;4966828;28;20054;-65
2022/10/12 12:23:51;;;;;;;10.68;3.47;;;;;;;;;;4962740;28;20042;-64
2022/10/12 12:26:18;;;;;;;12.60;4.38;;;;;;;;;;4969203;28;20058;-66
2022/10/12 12:28:46;;;;;;;18.73;5.07;;;;;;;;;;4962724;28;20081;-65
2022/10/12 12:31:17;;;;;;;12.45;4.13;;;;;;;;;;4985096;28;20120;-63
2022/10/12 12:33:45;;;;;;;17.63;5.05;;;;;;;;;;4980708;28;20050;-65
2022/10/12 12:36:13;;;;;;;9.50;3.72;;;;;;;;;;4968476;28;20101;-65
2022/10/12 12:38:41;;;;;;;10.55;3.95;;;;;;;;;;4966018;28;20054;-64
2022/10/12 12:41:10;;;;;;;10.57;3.40;;;;;;;;;;4978633;28;20083;-65
2022/10/12 12:44:01;;;;;;;16.15;6.18;;;;;;;;;;4985038;28;20160;-65
2022/10/12 12:46:55;;;;;;;10.93;5.30;;;;;;;;;;4964090;28;20059;-65
2022/10/12 12:49:26;;;;;;;17.30;6.28;;;;;;;;;;4927315;28;20121;-65
2022/10/12 12:51:53;;;;;;;10.75;4.60;;;;;;;;;;4984335;28;20048;-66
2022/10/12 12:54:21;;;;;;;13.63;6.23;;;;;;;;;;4968548;28;20076;-65
2022/10/12 12:56:55;;;;;;;15.25;5.03;;;;;;;;;;4964501;28;20050;-66
2022/10/12 12:59:32;;;;;;;16.48;7.07;;;;;;;;;;4969211;28;20073;-65
2022/10/12 13:02:12;;;;;;;20.02;5.88;;;;;;;;;;4963271;28;20062;-65
2022/10/12 13:04:56;;;;;;;18.30;7.15;;;;;;;;;;4967502;28;20054;-65
2022/10/12 13:07:32;;;;;;;21.80;7.13;;;;;;;;;;4967456;28;20066;-66
2022/10/12 13:10:05;;;;;;;14.65;5.38;;;;;;;;;;4967305;28;20058;-66
2022/10/12 13:12:50;;;;;;;13.95;4.65;;;;;;;;;;4965495;28;20094;-65
2022/10/12 13:15:25;;;;;;;25.00;7.68;;;;;;;;;;4945825;28;20106;-66
2022/10/12 13:18:07;;;;;;;18.58;7.53;;;;;;;;;;4948597;28;20062;-66
2022/10/12 13:20:34;;;;;;;21.10;8.20;;;;;;;;;;4942831;28;20054;-66
2022/10/12 13:23:02;;;;;;;16.33;6.63;;;;;;;;;;4968426;28;20046;-65
2022/10/12 13:25:32;;;;;;;9.25;4.13;;;;;;;;;;4968640;28;20058;-66
2022/10/12 13:27:59;;;;;;;25.67;8.40;;;;;;;;;;4962709;28;20059;-66
2022/10/12 13:30:32;;;;;;;16.50;6.70;;;;;;;;;;4970339;28;20113;-66
2022/10/12 13:33:02;;;;;;;22.27;8.10;;;;;;;;;;4965998;28;20096;-65
2022/10/12 13:35:31;;;;;;;18.27;6.60;;;;;;;;;;4971800;28;20046;-65
2022/10/12 13:38:03;;;;;;;19.55;7.13;;;;;;;;;;4963232;28;20114;-66
2022/10/12 13:40:32;;;;;;;9.30;3.92;;;;;;;;;;4954330;28;20047;-65
2022/10/12 13:43:14;;;;;;;9.38;3.90;;;;;;;;;;4961268;28;20050;-65
2022/10/12 13:45:45;;;;;;;10.10;4.50;;;;;;;;;;4972193;28;20066;-66
2022/10/12 13:48:16;;;;;;;11.93;5.15;;;;;;;;;;4966067;28;20150;-66
2022/10/12 13:50:49;;;;;;;19.63;5.95;;;;;;;;;;4988955;28;20148;-64
2022/10/12 13:53:16;;;;;;;10.85;5.03;;;;;;;;;;4966287;28;20161;-66
2022/10/12 13:55:50;;;;;;;12.77;4.95;;;;;;;;;;4972827;28;20051;-63
2022/10/12 13:58:23;;;;;;;18.80;6.40;;;;;;;;;;4969390;28;20113;-62
2022/10/12 14:00:51;;;;;;;12.43;5.53;;;;;;;;;;4974217;28;20128;-63
2022/10/12 14:03:24;;;;;;;25.65;9.48;;;;;;;;;;4968227;28;20113;-62
2022/10/12 14:05:52;;;;;;;22.45;9.48;;;;;;;;;;4971502;28;20050;-67
2022/10/12 14:08:22;;;;;;;23.63;8.65;;;;;;;;;;4963424;28;20069;-65
2022/10/12 14:10:49;;;;;;;17.80;7.65;;;;;;;;;;4971175;28;20070;-66
2022/10/12 14:13:20;;;;;;;21.55;7.30;;;;;;;;;;4965658;28;20046;-66
2022/10/12 14:15:47;;;;;;;19.08;7.60;;;;;;;;;;4970847;28;20050;-66
2022/10/12 14:18:32;;;;;;;12.50;5.50;;;;;;;;;;4961583;28;20043;-66
2022/10/12 14:21:05;;;;;;;12.55;5.43;;;;;;;;;;4951710;28;20054;-66
2022/10/12 14:23:31;;;;;;;16.00;5.28;;;;;;;;;;4967780;28;20057;-66
2022/10/12 14:25:58;;;;;;;17.13;5.80;;;;;;;;;;4971294;28;20058;-66
2022/10/12 14:28:28;;;;;;;13.20;4.75;;;;;;;;;;4965046;28;20054;-66
2022/10/12 14:30:54;;;;;;;10.75;4.18;;;;;;;;;;4970842;28;20141;-66
2022/10/12 14:33:22;;;;;;;13.65;4.97;;;;;;;;;;4965466;28;20145;-65
2022/10/12 14:35:51;;;;;;;12.95;4.35;;;;;;;;;;4970677;28;20050;-65
2022/10/12 14:38:19;;;;;;;;;;;;;;;;;;4970777;28;20098;-66
2022/10/12 14:40:46;;;;;;;18.20;5.20;;;;;;;;;;4965223;28;19976;-66
2022/10/12 14:43:22;;;;;;;12.27;4.72;;;;;;;;;;4969956;28;20161;-66
2022/10/12 14:45:49;;;;;;;13.50;5.25;;;;;;;;;;4964823;28;20054;-64
2022/10/12 14:48:18;;;;;;;12.68;4.60;;;;;;;;;;4970443;28;20136;-65
2022/10/12 14:50:45;;;;;;;17.77;5.30;;;;;;;;;;4964876;28;20149;-65